createdAt,value
2023-12-22T00:01:18.387Z,57.14
2023-12-22T00:05:18.997Z,55.60
2023-12-22T00:09:19.474Z,55.13
2023-12-22T00:13:22.729Z,54.57
2023-12-22T00:17:23.349Z,55.14
2023-12-22T00:21:23.871Z,54.88
2023-12-22T00:25:24.338Z,54.94
2023-12-22T00:29:29.810Z,54.28
2023-12-22T00:33:30.559Z,54.01
2023-12-22T00:37:31.060Z,53.89
2023-12-22T00:41:31.946Z,54.23
2023-12-22T00:45:35.048Z,54.05
2023-12-22T00:49:35.379Z,54.38
2023-12-22T00:53:36.061Z,55.12
2023-12-22T00:57:36.477Z,54.58
2023-12-22T01:01:39.663Z,54.68
2023-12-22T01:05:40.505Z,55.40
2023-12-22T01:09:41.867Z,54.39
2023-12-22T01:13:42.183Z,54.35
2023-12-22T01:17:45.171Z,55.13
2023-12-22T01:21:46.363Z,55.34
2023-12-22T01:25:47.794Z,55.34
2023-12-22T01:29:48.299Z,56.57
2023-12-22T01:33:51.557Z,56.07
2023-12-22T01:37:52.952Z,55.53
2023-12-22T01:41:53.914Z,56.57
2023-12-22T01:45:59.395Z,57.15
2023-12-22T01:50:02.917Z,57.00
2023-12-22T01:54:04.051Z,57.62
2023-12-22T01:58:05.273Z,57.67
2023-12-22T02:02:06.625Z,58.07
2023-12-22T02:06:10.162Z,57.22
2023-12-22T02:10:13.048Z,58.33
2023-12-22T02:14:13.605Z,58.27
2023-12-22T02:18:22.544Z,59.37
2023-12-22T02:22:26.026Z,59.01
2023-12-22T02:26:37.922Z,58.16
2023-12-22T02:30:53.375Z,58.21
2023-12-22T02:34:59.301Z,58.30
2023-12-22T02:39:02.063Z,57.44
2023-12-22T02:43:07.045Z,58.16
2023-12-22T02:47:07.996Z,58.97
2023-12-22T02:51:09.548Z,58.89
2023-12-22T02:55:10.880Z,58.69
2023-12-22T02:59:14.082Z,58.89
2023-12-22T03:03:14.763Z,57.88
2023-12-22T03:07:15.125Z,59.01
2023-12-22T03:11:15.652Z,58.90
2023-12-22T03:15:18.715Z,58.20
2023-12-22T03:19:19.046Z,59.50
2023-12-22T03:23:19.375Z,60.47
2023-12-22T03:27:21.462Z,60.59
2023-12-22T03:31:24.317Z,60.30
2023-12-22T03:35:24.686Z,59.52
2023-12-22T03:39:24.914Z,59.15
2023-12-22T03:43:25.191Z,58.74
2023-12-22T03:47:28.024Z,58.50
2023-12-22T03:51:28.338Z,58.52
2023-12-22T03:55:28.645Z,59.10
2023-12-22T03:59:28.918Z,58.75
2023-12-22T04:03:31.822Z,58.75
2023-12-22T04:07:32.218Z,58.17
2023-12-22T04:11:32.576Z,59.08
2023-12-22T04:15:33.031Z,58.07
2023-12-22T04:19:36.119Z,58.71
2023-12-22T04:23:37.780Z,59.05
2023-12-22T04:27:38.282Z,58.83
2023-12-22T04:31:41.722Z,58.60
2023-12-22T04:35:44.544Z,57.84
2023-12-22T04:39:44.813Z,58.02
2023-12-22T04:43:45.266Z,58.05
2023-12-22T04:47:45.631Z,57.67
2023-12-22T04:51:48.626Z,59.57
2023-12-22T04:55:49.011Z,59.07
2023-12-22T04:59:49.353Z,58.72
2023-12-22T05:03:49.604Z,57.96
2023-12-22T05:07:52.899Z,58.09
2023-12-22T05:11:53.173Z,58.79
2023-12-22T05:15:53.625Z,59.42
2023-12-22T05:19:54.117Z,58.86
2023-12-22T05:23:57.299Z,59.84
2023-12-22T05:27:57.642Z,58.46
2023-12-22T05:31:58.054Z,58.25
2023-12-22T05:35:59.740Z,57.83
2023-12-22T05:40:03.307Z,56.58
2023-12-22T05:44:04.079Z,56.18
2023-12-22T05:48:04.454Z,57.57
2023-12-22T05:52:04.714Z,57.65
2023-12-22T05:56:08.817Z,57.40
2023-12-22T06:00:12.996Z,57.74
2023-12-22T06:04:13.695Z,57.18
2023-12-22T06:08:14.259Z,58.54
2023-12-22T06:12:17.485Z,58.06
2023-12-22T06:16:19.908Z,58.21
2023-12-22T06:20:20.354Z,59.07
2023-12-22T06:24:20.781Z,58.45
2023-12-22T06:28:23.696Z,58.31
2023-12-22T06:32:23.960Z,58.19
2023-12-22T06:36:24.557Z,58.13
2023-12-22T06:40:25.602Z,58.02
2023-12-22T06:44:28.478Z,58.16
2023-12-22T06:48:30.176Z,57.79
2023-12-22T06:52:31.722Z,58.60
2023-12-22T06:56:35.381Z,59.34
2023-12-22T07:00:39.352Z,58.84
2023-12-22T07:04:39.695Z,58.66
2023-12-22T07:08:40.358Z,59.20
2023-12-22T07:12:40.721Z,59.18
2023-12-22T07:16:44.018Z,57.68
2023-12-22T07:20:44.576Z,58.40
2023-12-22T07:24:45.034Z,59.52
2023-12-22T07:28:45.611Z,58.77
2023-12-22T07:32:53.672Z,59.17
2023-12-22T07:37:03.471Z,59.26
2023-12-22T07:41:09.787Z,59.29
2023-12-22T07:45:12.550Z,58.82
2023-12-22T07:49:17.965Z,59.00
2023-12-22T07:53:18.358Z,58.54
2023-12-22T07:57:19.001Z,59.66
2023-12-22T08:01:19.593Z,58.83
2023-12-22T08:05:22.666Z,59.28
2023-12-22T08:09:23.929Z,59.05
2023-12-22T08:13:24.259Z,59.30
2023-12-22T08:17:24.985Z,59.21
2023-12-22T08:21:34.597Z,58.86
2023-12-22T08:25:45.677Z,59.62
2023-12-22T08:29:47.043Z,60.22
2023-12-22T08:33:47.499Z,59.86
2023-12-22T08:37:50.654Z,58.49
2023-12-22T08:41:51.908Z,57.50
2023-12-22T08:45:52.580Z,58.88
2023-12-22T08:49:53.124Z,57.51
2023-12-22T08:53:57.342Z,57.01
2023-12-22T08:58:02.763Z,56.87
2023-12-22T09:02:03.927Z,55.84
2023-12-22T09:06:04.533Z,55.62
2023-12-22T09:10:09.548Z,55.27
2023-12-22T09:14:11.085Z,54.64
2023-12-22T09:18:11.709Z,54.65
2023-12-22T09:22:12.301Z,55.08
2023-12-22T09:26:16.124Z,54.07
2023-12-22T09:30:18.023Z,52.63
2023-12-22T09:34:18.679Z,52.70
2023-12-22T09:38:19.282Z,53.25
2023-12-22T09:42:23.378Z,54.00
2023-12-22T09:46:27.937Z,53.95
2023-12-22T09:50:28.866Z,53.65
2023-12-22T09:54:29.812Z,53.87
2023-12-22T09:58:33.673Z,55.18
2023-12-22T10:02:37.480Z,55.47
2023-12-22T10:06:38.477Z,56.45
2023-12-22T10:10:39.523Z,58.09
2023-12-22T10:14:44.603Z,57.67
2023-12-22T10:18:45.284Z,57.56
2023-12-22T10:22:45.646Z,56.38
2023-12-22T10:26:45.937Z,55.55
2023-12-22T10:30:49.422Z,54.98
2023-12-22T10:34:50.121Z,54.67
2023-12-22T10:38:51.219Z,53.72
2023-12-22T10:42:53.232Z,51.95
2023-12-22T10:46:56.861Z,52.23
2023-12-22T10:50:57.819Z,51.82
2023-12-22T10:55:02.459Z,52.40
2023-12-22T10:59:03.974Z,51.55
2023-12-22T11:03:12.290Z,52.43
2023-12-22T11:07:15.737Z,52.24
2023-12-22T11:11:30.757Z,53.27
2023-12-22T11:15:32.713Z,55.06
2023-12-22T11:19:39.270Z,55.61
2023-12-22T11:23:42.545Z,56.43
2023-12-22T11:27:44.702Z,58.12
2023-12-22T11:31:49.338Z,59.17
2023-12-22T11:35:57.003Z,60.05
2023-12-22T11:39:58.874Z,59.41
2023-12-22T11:44:02.849Z,60.51
2023-12-22T11:48:12.167Z,60.97
2023-12-22T11:52:21.312Z,62.08
2023-12-22T11:56:22.428Z,62.67
2023-12-22T12:00:44.381Z,63.42
2023-12-22T12:04:44.952Z,62.20
2023-12-22T12:08:50.177Z,62.75
2023-12-22T12:12:50.760Z,62.91
2023-12-22T12:16:51.665Z,63.34
2023-12-22T12:20:53.259Z,62.64
2023-12-22T12:24:56.519Z,63.25
2023-12-22T12:28:59.573Z,63.69
2023-12-22T12:33:10.236Z,61.38
2023-12-22T12:37:11.621Z,61.65
2023-12-22T12:41:15.830Z,61.62
2023-12-22T12:45:16.271Z,61.10
2023-12-22T12:49:17.016Z,61.94
2023-12-22T12:53:17.694Z,61.52
2023-12-22T12:57:22.661Z,61.53
2023-12-22T13:01:29.112Z,61.51
2023-12-22T13:05:33.746Z,63.82
2023-12-22T13:09:37.670Z,63.29
2023-12-22T13:13:47.713Z,61.86
2023-12-22T13:17:48.812Z,63.25
2023-12-22T13:21:49.806Z,62.29
2023-12-22T13:25:50.660Z,62.03
2023-12-22T13:29:53.752Z,64.77
2023-12-22T13:33:54.388Z,64.27
2023-12-22T13:37:55.086Z,64.61
2023-12-22T13:41:55.520Z,64.29
2023-12-22T13:45:58.572Z,63.59
2023-12-22T13:50:00.776Z,63.73
2023-12-22T13:54:01.346Z,64.24
2023-12-22T13:58:05.225Z,65.00
2023-12-22T14:02:08.291Z,63.84
2023-12-22T14:06:10.407Z,65.17
2023-12-22T14:10:12.433Z,64.37
2023-12-22T14:14:13.312Z,64.84
2023-12-22T14:18:16.546Z,65.67
2023-12-22T14:22:17.068Z,65.11
2023-12-22T14:26:18.231Z,64.34
2023-12-22T14:30:18.875Z,64.66
2023-12-22T14:34:21.969Z,65.78
2023-12-22T14:38:22.477Z,64.92
2023-12-22T14:42:23.103Z,64.28
2023-12-22T14:46:23.340Z,65.71
2023-12-22T14:50:26.354Z,64.88
2023-12-22T14:54:26.882Z,64.93
2023-12-22T14:58:27.166Z,64.21
2023-12-22T15:02:27.620Z,64.07
2023-12-22T15:06:30.799Z,64.51
2023-12-22T15:10:31.242Z,63.55
2023-12-22T15:14:31.587Z,64.53
2023-12-22T15:18:31.905Z,64.71
2023-12-22T15:22:35.496Z,62.27
2023-12-22T15:26:36.738Z,62.12
2023-12-22T15:30:37.059Z,61.34
2023-12-22T15:34:37.389Z,61.50
2023-12-22T15:38:40.295Z,61.22
2023-12-22T15:42:40.708Z,61.44
2023-12-22T15:46:41.042Z,60.91
2023-12-22T15:50:43.373Z,61.80
2023-12-22T15:54:46.516Z,62.84
2023-12-22T15:58:46.931Z,62.63
2023-12-22T16:02:47.500Z,63.10
2023-12-22T16:06:47.982Z,62.16
2023-12-22T16:10:51.080Z,61.74
2023-12-22T16:14:52.788Z,62.13
2023-12-22T16:18:53.119Z,62.74
2023-12-22T16:22:53.855Z,62.63
2023-12-22T16:26:56.905Z,62.36
2023-12-22T16:30:57.783Z,62.32
2023-12-22T16:34:58.316Z,62.45
2023-12-22T16:38:58.643Z,62.63
2023-12-22T16:43:01.581Z,63.14
2023-12-22T16:47:03.033Z,62.11
2023-12-22T16:51:03.438Z,62.83
2023-12-22T16:55:03.726Z,63.53
2023-12-22T16:59:06.665Z,62.67
2023-12-22T17:03:08.368Z,63.83
2023-12-22T17:07:09.979Z,62.97
2023-12-22T17:11:10.648Z,62.18
2023-12-22T17:15:14.724Z,63.36
2023-12-22T17:19:15.303Z,63.17
2023-12-22T17:23:15.831Z,62.80
2023-12-22T17:27:16.391Z,63.47
2023-12-22T17:31:19.780Z,62.43
2023-12-22T17:35:20.364Z,62.72
2023-12-22T17:39:20.817Z,62.49
2023-12-22T17:43:21.197Z,61.13
2023-12-22T17:47:24.001Z,60.55
2023-12-22T17:51:24.153Z,62.11
2023-12-22T17:55:24.485Z,63.02
2023-12-22T17:59:24.976Z,63.30
2023-12-22T18:03:27.938Z,63.52
2023-12-22T18:07:28.165Z,63.40
2023-12-22T18:11:28.493Z,63.66
2023-12-22T18:15:28.785Z,63.47
2023-12-22T18:19:31.893Z,64.07
2023-12-22T18:23:32.117Z,63.52
2023-12-22T18:27:32.545Z,64.59
2023-12-22T18:31:32.823Z,63.71
2023-12-22T18:35:35.691Z,63.71
2023-12-22T18:39:37.130Z,63.25
2023-12-22T18:43:37.290Z,63.64
2023-12-22T18:47:37.504Z,63.11
2023-12-22T18:51:41.709Z,62.27
2023-12-22T18:55:42.172Z,62.68
2023-12-22T18:59:43.090Z,64.03
2023-12-22T19:03:44.882Z,64.63
2023-12-22T19:07:47.967Z,64.65
2023-12-22T19:11:48.488Z,64.89
2023-12-22T19:15:49.926Z,64.85
2023-12-22T19:19:50.556Z,63.69
2023-12-22T19:23:53.417Z,64.09
2023-12-22T19:27:53.788Z,63.16
2023-12-22T19:31:55.835Z,64.52
2023-12-22T19:35:56.900Z,63.52
2023-12-22T19:40:00.954Z,64.57
2023-12-22T19:44:01.362Z,64.51
2023-12-22T19:48:01.674Z,63.41
2023-12-22T19:52:02.097Z,64.04
2023-12-22T19:56:04.900Z,64.12
2023-12-22T20:00:06.500Z,64.45
2023-12-22T20:04:12.505Z,64.74
2023-12-22T20:08:12.848Z,64.58
2023-12-22T20:12:16.036Z,64.76
2023-12-22T20:16:17.649Z,63.25
2023-12-22T20:20:18.733Z,63.52
2023-12-22T20:24:19.146Z,64.10
2023-12-22T20:28:21.992Z,63.51
2023-12-22T20:32:22.845Z,63.89
2023-12-22T20:36:23.391Z,63.59
2023-12-22T20:40:23.616Z,64.21
2023-12-22T20:44:27.752Z,64.37
2023-12-22T20:48:29.271Z,65.94
2023-12-22T20:52:30.749Z,64.23
2023-12-22T20:56:32.451Z,65.12
2023-12-22T21:00:35.677Z,65.37
2023-12-22T21:04:35.978Z,64.78
2023-12-22T21:08:36.394Z,65.50
2023-12-22T21:12:36.734Z,65.73
2023-12-22T21:16:39.630Z,65.04
2023-12-22T21:20:41.368Z,65.07
2023-12-22T21:24:42.787Z,63.69
2023-12-22T21:28:43.021Z,64.43
2023-12-22T21:32:45.948Z,64.35
2023-12-22T21:36:46.352Z,64.95
2023-12-22T21:40:46.652Z,64.04
2023-12-22T21:44:47.639Z,63.71
2023-12-22T21:48:50.507Z,63.17
2023-12-22T21:52:52.569Z,64.78
2023-12-22T21:56:54.397Z,63.45
2023-12-22T22:00:55.694Z,64.48
2023-12-22T22:05:00.487Z,63.29
2023-12-22T22:09:00.822Z,63.07
2023-12-22T22:13:01.164Z,63.21
2023-12-22T22:17:01.622Z,62.92
2023-12-22T22:21:05.177Z,63.60
2023-12-22T22:25:05.524Z,63.70
2023-12-22T22:29:06.184Z,63.90
2023-12-22T22:33:06.785Z,63.95
2023-12-22T22:37:09.669Z,64.64
2023-12-22T22:41:13.020Z,63.68
2023-12-22T22:45:16.096Z,63.98
2023-12-22T22:49:16.957Z,63.72
2023-12-22T22:53:19.808Z,64.17
2023-12-22T22:57:20.053Z,64.87
2023-12-22T23:01:20.731Z,64.09
2023-12-22T23:05:21.202Z,64.31
2023-12-22T23:09:24.224Z,64.34
2023-12-22T23:13:24.470Z,64.72
2023-12-22T23:17:24.744Z,65.79
2023-12-22T23:21:25.264Z,65.96
2023-12-22T23:25:28.010Z,65.02
2023-12-22T23:29:28.276Z,66.05
2023-12-22T23:33:28.558Z,65.15
2023-12-22T23:37:28.857Z,65.02
2023-12-22T23:41:31.796Z,64.96
2023-12-22T23:45:32.070Z,64.28
2023-12-22T23:49:32.855Z,63.87
2023-12-22T23:53:33.055Z,63.91
2023-12-22T23:57:36.109Z,64.00
